Time;durP1;ratioP1;P1;durP2;ratioP2;P2;SDS_P1;SDS_P2;PMS_P1;PMS_P2;Temp;Humidity;BMP_temperature;BMP_pressure;BME280_temperature;BME280_humidity;BME280_pressure;Samples;Min_cycle;Max_cycle;Signal;HPM_P1;HPM_P2
2023/12/01 00:01:57;;;;;;;44.13;23.47;;;;;;;-0.41;100.00;98002.56;5094881;28;20296;-82
2023/12/01 00:04:24;;;;;;;43.67;22.73;;;;;;;-0.36;100.00;98009.88;5097318;28;20212;-81
2023/12/01 00:06:52;;;;;;;49.30;24.20;;;;;;;-0.44;100.00;98002.94;5105086;28;20203;-79
2023/12/01 00:09:19;;;;;;;47.10;23.60;;;;;;;-0.47;100.00;98013.84;5107812;28;20211;-82
2023/12/01 00:11:46;;;;;;;44.77;23.83;;;;;;;-0.46;100.00;98020.72;5097945;28;20216;-78
2023/12/01 00:14:17;;;;;;;42.87;21.83;;;;;;;-0.45;100.00;98017.91;5106264;28;20199;-81
2023/12/01 00:16:44;;;;;;;42.37;23.23;;;;;;;-0.47;100.00;98019.91;5111809;28;20197;-80
2023/12/01 00:19:13;;;;;;;44.17;22.60;;;;;;;-0.46;100.00;98010.19;5109064;28;20204;-80
2023/12/01 00:21:40;;;;;;;47.00;22.20;;;;;;;-0.43;100.00;98014.28;5099148;28;20193;-82
2023/12/01 00:24:10;;;;;;;45.13;21.73;;;;;;;-0.47;100.00;98017.28;5113017;28;20188;-80
2023/12/01 00:26:40;;;;;;;44.27;22.43;;;;;;;-0.43;100.00;98023.00;5077630;28;20317;-81
2023/12/01 00:29:07;;;;;;;41.07;21.90;;;;;;;-0.50;100.00;98017.66;5111121;28;20222;-81
2023/12/01 00:31:34;;;;;;;42.53;22.27;;;;;;;-0.52;100.00;98008.34;5104288;28;20195;-84
2023/12/01 00:34:01;;;;;;;40.47;21.97;;;;;;;-0.45;100.00;98015.28;5106177;28;20229;-83
2023/12/01 00:36:37;;;;;;;43.07;22.80;;;;;;;-0.48;100.00;98012.22;5085245;28;20200;-80
2023/12/01 00:39:06;;;;;;;43.30;23.37;;;;;;;-0.46;100.00;98016.28;5103066;28;20204;-80
2023/12/01 00:41:33;;;;;;;47.50;22.90;;;;;;;-0.43;100.00;98012.47;5100766;28;20191;-83
2023/12/01 00:44:04;;;;;;;45.40;22.90;;;;;;;-0.48;100.00;98004.34;5080529;28;20184;-82
2023/12/01 00:46:34;;;;;;;42.73;22.23;;;;;;;-0.44;100.00;98005.56;5097648;28;20229;-82
2023/12/01 00:49:03;;;;;;;45.37;23.80;;;;;;;-0.45;100.00;98017.91;5098697;28;20192;-81
2023/12/01 00:51:43;;;;;;;43.03;22.57;;;;;;;-0.47;100.00;98013.84;5097450;28;20225;-83
2023/12/01 00:54:13;;;;;;;43.03;22.67;;;;;;;-0.45;100.00;98011.84;5079896;28;20229;-79
2023/12/01 00:56:44;;;;;;;41.93;22.73;;;;;;;-0.46;100.00;98010.19;5101910;28;20229;-80
2023/12/01 00:59:12;;;;;;;46.63;21.60;;;;;;;-0.47;100.00;98017.28;5099044;28;20298;-81
2023/12/01 01:01:42;;;;;;;42.30;23.17;;;;;;;-0.47;100.00;98019.13;5102730;28;20200;-81
2023/12/01 01:04:10;;;;;;;47.23;22.33;;;;;;;-0.48;100.00;98020.13;5089281;28;20183;-81
2023/12/01 01:06:38;;;;;;;43.33;22.83;;;;;;;-0.43;100.00;98009.03;5069759;28;20215;-79
2023/12/01 01:09:09;;;;;;;42.17;22.93;;;;;;;-0.49;100.00;98016.66;5060326;28;20196;-81
2023/12/01 01:11:37;;;;;;;41.50;22.53;;;;;;;-0.45;100.00;98003.94;5088439;28;20221;-81
2023/12/01 01:14:04;;;;;;;43.70;22.33;;;;;;;-0.45;100.00;98015.28;5095880;28;20234;-80
2023/12/01 01:16:30;;;;;;;42.80;22.90;;;;;;;-0.43;100.00;98015.09;5101895;28;20196;-80
2023/12/01 01:18:57;;;;;;;39.20;21.90;;;;;;;-0.44;100.00;98013.47;5074278;28;20676;-79
2023/12/01 01:21:24;;;;;;;42.87;22.93;;;;;;;-0.42;100.00;98021.19;5110956;28;20221;-83
2023/12/01 01:23:53;;;;;;;38.47;21.97;;;;;;;-0.45;100.00;98020.53;5113610;28;20244;-80
2023/12/01 01:26:20;;;;;;;36.43;22.27;;;;;;;-0.42;100.00;98016.72;5109990;28;20192;-79
2023/12/01 01:28:48;;;;;;;39.47;21.07;;;;;;;-0.37;100.00;98009.06;5100375;28;20200;-81
2023/12/01 01:31:15;;;;;;;40.97;22.90;;;;;;;-0.38;100.00;98014.53;5093770;28;20653;-80
2023/12/01 01:33:48;;;;;;;40.33;21.13;;;;;;;-0.41;100.00;98014.91;5108342;28;20674;-82
2023/12/01 01:36:19;;;;;;;39.60;22.60;;;;;;;-0.36;100.00;98015.16;5090163;28;20656;-80
2023/12/01 01:38:49;;;;;;;37.27;21.97;;;;;;;-0.32;100.00;98006.69;5093242;28;20236;-81
2023/12/01 01:41:18;;;;;;;40.00;22.53;;;;;;;-0.33;100.00;97999.81;5072895;28;20684;-81
2023/12/01 01:43:48;;;;;;;39.70;22.17;;;;;;;-0.30;100.00;97995.97;5102922;28;20280;-82
2023/12/01 01:46:16;;;;;;;38.23;21.37;;;;;;;-0.30;100.00;97994.16;5067865;28;20668;-83
2023/12/01 01:48:45;;;;;;;38.27;22.50;;;;;;;-0.30;100.00;97981.00;5095670;28;20251;-81
2023/12/01 01:51:13;;;;;;;37.57;21.63;;;;;;;-0.35;100.00;97977.31;5092244;28;20224;-83
2023/12/01 01:53:41;;;;;;;37.17;20.80;;;;;;;-0.28;100.00;97986.88;5094257;28;20246;-80
2023/12/01 01:56:12;;;;;;;36.97;21.40;;;;;;;-0.32;100.00;97980.38;5093928;28;20207;-84
2023/12/01 01:58:39;;;;;;;35.53;20.33;;;;;;;-0.27;100.00;97980.59;5075749;28;20203;-81
2023/12/01 02:01:07;;;;;;;35.63;21.50;;;;;;;-0.34;100.00;97985.03;5080000;28;20196;-80
2023/12/01 02:03:37;;;;;;;36.87;20.40;;;;;;;-0.38;100.00;97970.63;5092545;28;20282;-80
2023/12/01 02:06:07;;;;;;;34.47;20.30;;;;;;;-0.36;100.00;97987.00;5089128;28;20252;-79
2023/12/01 02:08:37;;;;;;;35.90;21.13;;;;;;;-0.39;100.00;97982.16;5088934;28;20192;-79
2023/12/01 02:11:09;;;;;;;34.33;20.33;;;;;;;-0.38;100.00;97978.53;5079853;28;20187;-80
2023/12/01 02:13:35;;;;;;;34.13;20.53;;;;;;;-0.40;100.00;97980.50;5075669;28;20661;-82
2023/12/01 02:16:03;;;;;;;36.13;20.87;;;;;;;-0.38;100.00;97972.44;5077072;28;20199;-81
2023/12/01 02:18:35;;;;;;;37.13;20.47;;;;;;;-0.36;100.00;97968.59;5097934;28;20250;-82
2023/12/01 02:21:04;;;;;;;33.17;21.13;;;;;;;-0.33;100.00;97962.16;5077068;28;20208;-81
2023/12/01 02:23:31;;;;;;;37.93;21.67;;;;;;;-0.30;100.00;97961.75;5075708;28;20286;-81
2023/12/01 02:26:00;;;;;;;34.83;20.90;;;;;;;-0.35;100.00;97957.06;5095767;28;20571;-80
2023/12/01 02:28:30;;;;;;;35.53;20.50;;;;;;;-0.35;100.00;97959.72;5080385;28;20286;-81
2023/12/01 02:31:01;;;;;;;37.30;20.73;;;;;;;-0.32;100.00;97966.38;5100959;28;20200;-80
2023/12/01 02:33:32;;;;;;;36.23;20.77;;;;;;;-0.34;100.00;97957.88;5099448;28;20192;-80
2023/12/01 02:36:00;;;;;;;34.90;20.37;;;;;;;-0.32;100.00;97951.41;5095059;28;20192;-79
2023/12/01 02:38:27;;;;;;;37.20;21.30;;;;;;;-0.30;100.00;97952.06;5078017;28;20195;-80
2023/12/01 02:40:54;;;;;;;34.73;20.73;;;;;;;-0.26;100.00;97955.09;5089925;28;20211;-82
2023/12/01 02:43:21;;;;;;;34.93;20.67;;;;;;;-0.23;100.00;97952.91;5066939;28;20192;-80
2023/12/01 02:45:51;;;;;;;35.63;20.97;;;;;;;-0.21;100.00;97950.91;5092742;28;20590;-82
2023/12/01 02:48:20;;;;;;;32.87;21.03;;;;;;;-0.19;100.00;97951.53;5087051;28;20188;-81
2023/12/01 02:50:47;;;;;;;34.40;21.20;;;;;;;-0.19;100.00;97956.81;5087012;28;20216;-80
2023/12/01 02:53:24;;;;;;;37.40;21.73;;;;;;;-0.19;100.00;97964.69;5097555;28;20191;-82
2023/12/01 02:55:51;;;;;;;32.90;20.63;;;;;;;-0.18;100.00;97961.03;5067670;28;20285;-80
2023/12/01 02:58:21;;;;;;;36.27;21.77;;;;;;;-0.16;100.00;97959.03;5062900;28;20208;-80
2023/12/01 03:00:48;;;;;;;35.97;21.20;;;;;;;-0.15;100.00;97960.69;5101629;28;20262;-79
2023/12/01 03:03:17;;;;;;;36.30;22.27;;;;;;;-0.12;100.00;97962.91;5098417;28;20196;-80
2023/12/01 03:05:47;;;;;;;34.67;21.10;;;;;;;-0.16;100.00;97945.88;5104310;28;20187;-82
2023/12/01 03:08:14;;;;;;;34.97;21.40;;;;;;;-0.13;100.00;97939.41;5075298;28;20196;-79
2023/12/01 03:10:41;;;;;;;33.27;20.77;;;;;;;-0.13;100.00;97937.59;5085119;28;20192;-82
2023/12/01 03:13:09;;;;;;;34.77;20.67;;;;;;;-0.12;100.00;97935.78;5080585;28;20195;-79
2023/12/01 03:15:36;;;;;;;33.93;20.90;;;;;;;-0.09;100.00;97944.09;5080515;28;20216;-80
2023/12/01 03:18:03;;;;;;;36.60;21.60;;;;;;;-0.08;100.00;97935.19;5075940;28;20208;-81
2023/12/01 03:20:31;;;;;;;37.23;21.13;;;;;;;-0.06;100.00;97920.03;5094680;28;20320;-83
2023/12/01 03:23:00;;;;;;;35.73;22.07;;;;;;;-0.04;100.00;97918.00;5078146;28;20227;-80
2023/12/01 03:25:34;;;;;;;37.33;21.67;;;;;;;-0.04;100.00;97925.06;5100071;28;20238;-81
2023/12/01 03:28:00;;;;;;;34.27;21.67;;;;;;;-0.05;100.00;97934.78;5096892;28;20199;-81
2023/12/01 03:30:27;;;;;;;36.23;22.33;;;;;;;-0.05;100.00;97940.06;5091516;28;20741;-81
2023/12/01 03:32:54;;;;;;;36.83;22.17;;;;;;;-0.02;100.00;97937.06;5103199;28;20187;-80
2023/12/01 03:35:24;;;;;;;40.77;22.77;;;;;;;-0.04;100.00;97939.06;5093081;28;20262;-82
2023/12/01 03:37:56;;;;;;;36.60;22.93;;;;;;;-0.05;100.00;97937.44;5073203;28;20211;-79
2023/12/01 03:40:24;;;;;;;39.37;22.73;;;;;;;-0.02;100.00;97931.78;5089886;28;20236;-82
2023/12/01 03:42:52;;;;;;;34.97;22.57;;;;;;;-0.01;100.00;97922.91;5098960;28;20207;-83
2023/12/01 03:45:19;;;;;;;39.07;24.40;;;;;;;0.02;100.00;97926.13;5092634;28;20211;-80
2023/12/01 03:47:47;;;;;;;41.97;24.67;;;;;;;0.03;100.00;97928.59;5092685;28;20291;-80
2023/12/01 03:50:15;;;;;;;39.77;23.70;;;;;;;0.02;100.00;97929.59;5098168;28;20307;-82
2023/12/01 03:52:44;;;;;;;38.43;24.07;;;;;;;0.03;100.00;97915.41;5077345;28;20206;-82
2023/12/01 03:55:11;;;;;;;35.53;21.73;;;;;;;0.05;100.00;97909.97;5097575;28;20204;-79
2023/12/01 03:57:39;;;;;;;40.80;25.00;;;;;;;0.07;100.00;97921.09;5077887;28;20188;-80
2023/12/01 04:00:09;;;;;;;36.77;22.87;;;;;;;0.07;100.00;97921.91;5081240;28;20212;-80
2023/12/01 04:02:44;;;;;;;36.63;22.27;;;;;;;0.07;100.00;97919.28;5073237;28;20207;-81
2023/12/01 04:05:19;;;;;;;36.37;22.80;;;;;;;0.10;100.00;97916.25;5104300;28;20243;-80
2023/12/01 04:07:50;;;;;;;37.77;21.97;;;;;;;0.11;100.00;97915.25;5094865;28;20270;-81
2023/12/01 04:10:24;;;;;;;34.67;21.73;;;;;;;0.11;100.00;97917.88;5095185;28;20184;-83
2023/12/01 04:13:05;;;;;;;33.30;21.57;;;;;;;0.08;100.00;97922.72;5098833;28;20199;-81
2023/12/01 04:15:39;;;;;;;33.40;21.97;;;;;;;0.06;100.00;97932.63;5114483;28;20203;-80
2023/12/01 04:18:06;;;;;;;38.20;22.23;;;;;;;0.04;100.00;97929.41;5095112;28;20200;-81
2023/12/01 04:20:38;;;;;;;33.47;21.50;;;;;;;0.03;100.00;97909.34;5098974;28;20211;-82
2023/12/01 04:23:09;;;;;;;34.60;21.73;;;;;;;0.04;100.00;97910.97;5110494;28;20196;-80
2023/12/01 04:25:46;;;;;;;34.97;21.93;;;;;;;0.03;100.00;97901.44;5098980;28;20283;-81
2023/12/01 04:28:14;;;;;;;37.93;22.33;;;;;;;0.03;100.00;97914.59;5099836;28;20191;-81
2023/12/01 04:30:42;;;;;;;35.87;21.93;;;;;;;0.04;100.00;97913.59;5098161;28;20215;-80
2023/12/01 04:33:13;;;;;;;34.93;21.63;;;;;;;0.05;100.00;97926.56;5097691;28;20184;-81
2023/12/01 04:35:43;;;;;;;33.37;21.17;;;;;;;0.03;100.00;97928.59;5074562;28;20275;-83
2023/12/01 04:38:10;;;;;;;32.67;20.37;;;;;;;0.00;100.00;97936.88;5086290;28;20180;-80
2023/12/01 04:40:37;;;;;;;35.80;22.33;;;;;;;0.01;100.00;97938.47;5094609;28;20216;-82
2023/12/01 04:43:04;;;;;;;36.77;22.13;;;;;;;-0.02;100.00;97937.06;5097814;28;20181;-81
2023/12/01 04:45:32;;;;;;;32.57;21.07;;;;;;;0.00;100.00;97940.28;5113404;28;20275;-80
2023/12/01 04:48:02;;;;;;;37.43;21.80;;;;;;;0.01;100.00;97930.59;5105864;28;20192;-80
2023/12/01 04:50:30;;;;;;;34.40;21.77;;;;;;;0.00;100.00;97923.72;5108226;28;20322;-82
2023/12/01 04:53:03;;;;;;;34.57;21.67;;;;;;;0.02;100.00;97911.16;5092163;28;20203;-79
2023/12/01 04:55:30;;;;;;;38.37;21.50;;;;;;;0.04;100.00;97909.16;5087311;28;20198;-81
2023/12/01 04:57:58;;;;;;;33.47;21.40;;;;;;;0.05;100.00;97913.38;5102746;28;20192;-79
2023/12/01 05:00:26;;;;;;;37.57;22.87;;;;;;;0.05;100.00;97899.44;5078027;28;20225;-80
2023/12/01 05:03:00;;;;;;;37.57;23.23;;;;;;;0.05;100.00;97894.16;5099532;28;20242;-80
2023/12/01 05:05:31;;;;;;;36.23;21.80;;;;;;;0.06;100.00;97893.13;5101207;28;20223;-84
2023/12/01 05:07:59;;;;;;;35.07;21.13;;;;;;;0.05;100.00;97899.44;5095232;28;20220;-81
2023/12/01 05:10:31;;;;;;;34.53;20.83;;;;;;;0.04;100.00;97909.16;5108548;28;20219;-79
2023/12/01 05:13:01;;;;;;;36.67;22.40;;;;;;;0.08;100.00;97917.47;5103436;28;20575;-79
2023/12/01 05:15:30;;;;;;;34.50;21.97;;;;;;;0.08;100.00;97920.09;5101834;28;20282;-80
2023/12/01 05:18:01;;;;;;;34.97;21.43;;;;;;;0.07;100.00;97932.44;5078429;28;20204;-80
2023/12/01 05:20:30;;;;;;;32.63;21.37;;;;;;;0.06;100.00;97943.16;5101559;28;20253;-79
2023/12/01 05:23:00;;;;;;;38.20;22.00;;;;;;;-0.04;100.00;97939.06;5105185;28;20215;-79
2023/12/01 05:25:32;;;;;;;37.07;21.23;;;;;;;-0.03;100.00;97950.41;5102042;28;20188;-81
2023/12/01 05:28:04;;;;;;;37.00;22.57;;;;;;;-0.08;100.00;97951.00;5102891;28;20192;-81
2023/12/01 05:30:36;;;;;;;33.57;21.70;;;;;;;-0.04;100.00;97948.78;5101926;28;20231;-80
2023/12/01 05:33:05;;;;;;;34.83;21.87;;;;;;;-0.03;100.00;97958.31;5094408;28;20206;-80
2023/12/01 05:35:33;;;;;;;36.93;23.00;;;;;;;-0.05;100.00;97963.75;5095062;28;20648;-79
2023/12/01 05:38:00;;;;;;;34.60;21.80;;;;;;;-0.05;100.00;97963.75;5100530;28;20211;-81
2023/12/01 05:40:31;;;;;;;35.07;21.70;;;;;;;-0.10;100.00;97963.53;5092797;28;20680;-78
2023/12/01 05:42:58;;;;;;;36.00;22.10;;;;;;;-0.09;100.00;97959.06;5097253;28;20200;-79
2023/12/01 05:45:26;;;;;;;38.67;22.70;;;;;;;-0.11;100.00;97953.19;5101370;28;20188;-79
2023/12/01 05:47:55;;;;;;;36.00;22.67;;;;;;;-0.12;100.00;97955.00;5097762;28;20189;-78
2023/12/01 05:50:23;;;;;;;36.30;21.47;;;;;;;-0.13;100.00;97955.19;5091408;28;20232;-78
2023/12/01 05:52:52;;;;;;;41.37;24.03;;;;;;;-0.16;100.00;97958.22;5095071;28;20200;-77
2023/12/01 05:55:21;;;;;;;37.60;23.53;;;;;;;-0.18;100.00;97958.41;5095033;28;20279;-77
2023/12/01 05:57:51;;;;;;;37.30;23.13;;;;;;;-0.19;100.00;97961.25;5062134;28;20593;-80
2023/12/01 06:00:29;;;;;;;37.00;23.20;;;;;;;-0.16;100.00;97964.31;5099779;28;20261;-78
2023/12/01 06:03:01;;;;;;;38.30;23.17;;;;;;;-0.19;100.00;97950.72;5094415;28;20245;-79
2023/12/01 06:05:43;;;;;;;37.30;22.50;;;;;;;-0.21;100.00;97963.25;5103738;28;20195;-78
2023/12/01 06:08:09;;;;;;;40.60;24.17;;;;;;;-0.25;100.00;97949.66;5073328;28;21438;-78
2023/12/01 06:10:38;;;;;;;36.70;22.63;;;;;;;-0.21;100.00;97958.81;5092621;28;20261;-79
2023/12/01 06:13:05;;;;;;;41.10;23.33;;;;;;;-0.21;100.00;97955.34;5093759;28;20200;-78
2023/12/01 06:15:35;;;;;;;40.43;23.70;;;;;;;-0.24;100.00;97958.38;5099831;28;20191;-78
2023/12/01 06:18:02;;;;;;;37.60;23.37;;;;;;;-0.22;100.00;97964.25;5094635;28;20196;-78
2023/12/01 06:20:31;;;;;;;39.13;23.30;;;;;;;-0.23;100.00;97967.88;5094088;28;20220;-79
2023/12/01 06:23:00;;;;;;;39.33;22.90;;;;;;;-0.25;100.00;97962.81;5096423;28;20191;-82
2023/12/01 06:25:30;;;;;;;38.03;22.27;;;;;;;-0.24;100.00;97969.72;5100028;28;20184;-77
2023/12/01 06:28:00;;;;;;;38.47;22.90;;;;;;;-0.23;100.00;97960.78;5100567;28;20192;-78
2023/12/01 06:30:35;;;;;;;37.60;23.57;;;;;;;-0.23;100.00;97966.06;5095793;28;20227;-80
2023/12/01 06:33:06;;;;;;;39.67;22.77;;;;;;;-0.18;100.00;97974.19;5099684;28;20266;-79
2023/12/01 06:35:36;;;;;;;40.47;23.80;;;;;;;-0.19;100.00;97983.13;5096355;28;20188;-79
2023/12/01 06:38:05;;;;;;;39.83;23.13;;;;;;;-0.26;100.00;97984.88;5107626;28;20192;-76
2023/12/01 06:40:33;;;;;;;37.47;23.50;;;;;;;-0.25;100.00;97989.13;5110904;28;20215;-80
2023/12/01 06:43:02;;;;;;;41.47;23.73;;;;;;;-0.20;100.00;97997.28;5112338;28;20216;-83
2023/12/01 06:45:29;;;;;;;42.07;23.80;;;;;;;-0.20;100.00;98002.53;5108715;28;20797;-79
2023/12/01 06:47:59;;;;;;;38.87;23.63;;;;;;;-0.16;100.00;98013.50;5099188;28;20668;-80
2023/12/01 06:50:29;;;;;;;40.23;23.20;;;;;;;-0.14;100.00;98014.13;5096419;28;20266;-80
2023/12/01 06:52:59;;;;;;;36.90;22.93;;;;;;;-0.13;100.00;98019.19;5097175;28;20199;-80
2023/12/01 06:55:27;;;;;;;40.17;23.07;;;;;;;-0.14;100.00;98017.56;5099734;28;20200;-78
2023/12/01 06:57:54;;;;;;;40.77;23.67;;;;;;;-0.12;100.00;98020.81;5095532;28;20200;-79
2023/12/01 07:00:30;;;;;;;40.17;23.07;;;;;;;-0.06;100.00;98027.16;5078378;28;20216;-79
2023/12/01 07:03:04;;;;;;;41.50;23.50;;;;;;;0.03;100.00;98030.44;5096084;28;20237;-79
2023/12/01 07:05:33;;;;;;;40.50;23.77;;;;;;;0.07;100.00;98036.97;5083197;28;20254;-81
2023/12/01 07:08:01;;;;;;;39.57;23.63;;;;;;;0.18;100.00;98045.16;5089028;28;20220;-81
2023/12/01 07:10:28;;;;;;;40.17;24.07;;;;;;;0.23;100.00;98039.31;5064866;28;20196;-81
2023/12/01 07:12:55;;;;;;;42.57;25.10;;;;;;;0.32;100.00;98030.25;5093998;28;20196;-79
2023/12/01 07:15:24;;;;;;;38.43;24.00;;;;;;;0.41;100.00;98015.91;5091431;28;20200;-80
2023/12/01 07:17:56;;;;;;;42.27;24.83;;;;;;;0.48;100.00;98022.03;5099541;28;20198;-78
2023/12/01 07:20:27;;;;;;;40.30;24.43;;;;;;;0.57;100.00;98028.75;5095485;28;20220;-79
2023/12/01 07:22:55;;;;;;;49.93;26.60;;;;;;;0.65;100.00;98015.44;5087261;28;20195;-79
2023/12/01 07:25:22;;;;;;;44.07;25.60;;;;;;;0.67;100.00;98009.97;5098061;28;20213;-80
2023/12/01 07:28:06;;;;;;;44.97;25.37;;;;;;;0.71;100.00;98008.56;5100936;28;20261;-79
2023/12/01 07:30:33;;;;;;;49.60;27.63;;;;;;;0.73;100.00;98014.47;5076158;28;20191;-81
2023/12/01 07:33:03;;;;;;;48.63;26.57;;;;;;;0.90;100.00;98013.09;5102840;28;20202;-78
2023/12/01 07:35:31;;;;;;;49.07;26.93;;;;;;;0.99;100.00;98019.00;5096973;28;20187;-78
2023/12/01 07:37:58;;;;;;;49.63;26.90;;;;;;;1.04;100.00;98021.88;5111404;28;20280;-77
2023/12/01 07:40:25;;;;;;;51.23;27.97;;;;;;;0.97;100.00;98026.31;5099551;28;20216;-79
2023/12/01 07:42:56;;;;;;;47.53;27.30;;;;;;;0.84;100.00;98033.16;5087004;28;20234;-79
2023/12/01 07:45:25;;;;;;;45.60;25.80;;;;;;;0.71;100.00;98034.91;5098961;28;20199;-79
2023/12/01 07:47:55;;;;;;;46.77;26.70;;;;;;;0.60;100.00;98036.31;5110705;28;20545;-77
2023/12/01 07:50:26;;;;;;;46.77;26.43;;;;;;;0.68;100.00;98020.31;5103706;28;20234;-79
2023/12/01 07:52:59;;;;;;;47.03;26.90;;;;;;;0.82;100.00;98026.47;5098663;28;20210;-78
2023/12/01 07:55:29;;;;;;;46.07;27.27;;;;;;;0.98;100.00;98009.50;5099998;28;20200;-78
2023/12/01 07:57:57;;;;;;;49.80;28.60;;;;;;;1.02;100.00;98016.81;5106297;28;20227;-81
2023/12/01 08:00:23;;;;;;;49.27;27.70;;;;;;;1.10;100.00;98019.25;5098012;28;20283;-79
2023/12/01 08:02:51;;;;;;;51.23;27.43;;;;;;;1.17;100.00;98014.81;5099113;28;20193;-78
2023/12/01 08:05:21;;;;;;;50.93;28.80;;;;;;;0.89;100.00;98014.91;5103403;28;20203;-79
2023/12/01 08:07:53;;;;;;;47.23;27.77;;;;;;;0.92;100.00;98018.19;5097690;28;20276;-79
2023/12/01 08:10:24;;;;;;;49.03;27.93;;;;;;;0.85;100.00;98018.16;5083127;28;20227;-78
2023/12/01 08:12:56;;;;;;;43.30;25.53;;;;;;;0.66;100.00;98006.50;5105297;28;20499;-79
2023/12/01 08:15:25;;;;;;;45.43;27.67;;;;;;;0.74;100.00;98003.72;5102232;28;20215;-79
2023/12/01 08:17:59;;;;;;;45.87;26.87;;;;;;;0.86;100.00;98002.13;5094318;28;20195;-78
2023/12/01 08:20:29;;;;;;;45.17;27.17;;;;;;;1.08;100.00;97997.53;5099250;28;20222;-80
2023/12/01 08:23:02;;;;;;;47.23;27.20;;;;;;;1.30;100.00;98003.50;5099740;28;20214;-81
2023/12/01 08:25:30;;;;;;;47.57;28.13;;;;;;;1.51;100.00;98003.31;5093195;28;20567;-78
2023/12/01 08:27:58;;;;;;;49.73;27.67;;;;;;;1.65;100.00;97991.75;5095290;28;20266;-82
2023/12/01 08:30:25;;;;;;;52.53;28.03;;;;;;;1.68;100.00;97998.47;5085148;28;20245;-79
2023/12/01 08:32:55;;;;;;;48.07;29.17;;;;;;;1.76;100.00;97998.25;5093080;28;20196;-81
2023/12/01 08:35:22;;;;;;;46.73;27.80;;;;;;;1.87;100.00;97987.06;5098858;28;20198;-80
2023/12/01 08:37:53;;;;;;;45.33;27.57;;;;;;;1.83;100.00;97996.41;5096197;28;20200;-79
2023/12/01 08:40:20;;;;;;;45.57;27.63;;;;;;;2.03;100.00;97984.03;5094920;28;20207;-78
2023/12/01 08:42:53;;;;;;;42.10;26.33;;;;;;;1.87;100.00;97995.00;5097419;28;20204;-78
2023/12/01 08:45:20;;;;;;;39.63;24.63;;;;;;;1.36;100.00;98007.13;5101819;28;20271;-78
2023/12/01 08:47:47;;;;;;;39.63;24.67;;;;;;;1.46;100.00;98020.75;5097139;28;20188;-77
2023/12/01 08:50:17;;;;;;;46.47;27.37;;;;;;;1.61;100.00;98024.84;5102920;28;20191;-79
2023/12/01 08:52:44;;;;;;;42.80;28.03;;;;;;;1.81;100.00;98027.50;5096936;28;20196;-79
2023/12/01 08:55:11;;;;;;;45.00;27.40;;;;;;;1.82;100.00;98033.59;5098437;28;20188;-80
2023/12/01 08:57:38;;;;;;;41.87;27.03;;;;;;;1.92;100.00;98034.00;5099809;28;20219;-79
2023/12/01 09:00:09;;;;;;;47.60;28.63;;;;;;;1.91;100.00;98032.41;5113174;28;20283;-78
2023/12/01 09:02:36;;;;;;;48.27;27.47;;;;;;;1.86;100.00;98026.91;5115069;28;20318;-80
2023/12/01 09:05:04;;;;;;;45.17;26.73;;;;;;;1.59;100.00;98015.50;5113274;28;20211;-79
2023/12/01 09:07:33;;;;;;;46.33;26.63;;;;;;;1.51;100.00;98015.69;5104741;28;20217;-79
2023/12/01 09:10:00;;;;;;;42.80;26.63;;;;;;;1.55;100.00;98017.72;5108591;28;20195;-81
2023/12/01 09:12:27;;;;;;;42.57;26.20;;;;;;;1.64;100.00;98013.06;5108908;27;20265;-79
2023/12/01 09:14:54;;;;;;;47.33;28.23;;;;;;;1.49;100.00;98017.72;5107074;28;20222;-79
2023/12/01 09:17:25;;;;;;;44.13;27.20;;;;;;;1.50;100.00;98020.16;5111684;28;20290;-79
2023/12/01 09:19:52;;;;;;;47.50;28.27;;;;;;;1.39;100.00;98006.75;5105767;28;20274;-80
2023/12/01 09:22:19;;;;;;;42.87;27.30;;;;;;;1.31;100.00;98011.19;5111892;28;20240;-79
2023/12/01 09:24:48;;;;;;;45.97;27.93;;;;;;;1.33;100.00;98011.00;5102978;28;20191;-79
2023/12/01 09:27:15;;;;;;;44.13;27.40;;;;;;;1.48;100.00;98011.63;5107015;28;20292;-80
2023/12/01 09:29:42;;;;;;;43.97;26.37;;;;;;;1.51;100.00;98008.59;5094497;28;20203;-79
2023/12/01 09:32:08;;;;;;;46.73;28.10;;;;;;;1.44;100.00;97996.41;5110846;28;20199;-79
2023/12/01 09:34:35;;;;;;;49.10;28.03;;;;;;;1.49;100.00;98010.63;5105085;28;20192;-79
2023/12/01 09:37:02;;;;;;;48.27;27.93;;;;;;;1.42;100.00;98009.78;5093230;28;20191;-82
2023/12/01 09:39:29;;;;;;;49.93;27.97;;;;;;;1.29;100.00;98004.50;5110897;28;20270;-80
2023/12/01 09:41:57;;;;;;;46.80;26.30;;;;;;;1.53;100.00;97993.38;5103767;28;20224;-80
2023/12/01 09:44:27;;;;;;;50.17;27.80;;;;;;;1.38;100.00;97990.09;5103767;28;20198;-79
2023/12/01 09:46:55;;;;;;;45.97;27.33;;;;;;;1.34;100.00;97986.25;5107949;28;20205;-79
2023/12/01 09:49:22;;;;;;;44.23;26.80;;;;;;;1.28;100.00;97987.84;5094144;28;20231;-78
2023/12/01 09:51:51;;;;;;;47.90;27.77;;;;;;;1.36;100.00;97986.03;5093200;28;20227;-80
2023/12/01 09:54:21;;;;;;;44.07;26.40;;;;;;;1.34;100.00;97983.59;5096958;28;20283;-83
2023/12/01 09:56:48;;;;;;;44.90;26.30;;;;;;;1.42;100.00;97985.22;5091942;28;20196;-80
2023/12/01 09:59:17;;;;;;;44.17;26.17;;;;;;;1.56;100.00;97974.50;5094081;28;20227;-81
2023/12/01 10:01:50;;;;;;;43.03;26.23;;;;;;;1.57;100.00;97968.19;5094384;28;20211;-76
2023/12/01 10:04:17;;;;;;;48.07;26.90;;;;;;;1.76;100.00;97959.47;5096037;28;20187;-79
2023/12/01 10:06:44;;;;;;;44.73;26.57;;;;;;;1.65;100.00;97965.34;5099230;28;20211;-80
2023/12/01 10:09:12;;;;;;;43.57;26.17;;;;;;;1.71;100.00;97961.91;5101886;28;20188;-79
2023/12/01 10:11:39;;;;;;;43.93;25.67;;;;;;;1.57;100.00;97949.72;5096187;28;20216;-77
2023/12/01 10:14:06;;;;;;;40.53;26.07;;;;;;;1.71;100.00;97947.88;5089305;28;20679;-78
2023/12/01 10:16:36;;;;;;;41.57;25.97;;;;;;;2.06;100.00;97946.63;5095228;28;20246;-78
2023/12/01 10:19:04;;;;;;;44.67;26.10;;;;;;;1.85;100.00;97941.59;5092354;28;20192;-79
2023/12/01 10:21:48;;;;;;;42.87;25.40;;;;;;;1.89;100.00;97944.63;5092782;28;20230;-79
2023/12/01 10:24:21;;;;;;;37.93;24.60;;;;;;;2.09;100.00;97940.94;5095544;28;20196;-79
2023/12/01 10:26:55;;;;;;;40.47;24.60;;;;;;;1.89;100.00;97937.50;5098712;28;20255;-80
2023/12/01 10:29:30;;;;;;;38.77;25.10;;;;;;;1.94;100.00;97931.59;5103650;28;20379;-80
2023/12/01 10:32:03;;;;;;;39.20;24.20;;;;;;;1.81;100.00;97950.13;5104149;28;20192;-78
2023/12/01 10:34:30;;;;;;;41.23;25.33;;;;;;;1.97;100.00;97947.03;5081969;28;20195;-79
2023/12/01 10:36:57;;;;;;;41.20;25.43;;;;;;;1.70;100.00;97957.63;5078967;28;20197;-79
2023/12/01 10:39:29;;;;;;;42.57;25.83;;;;;;;1.77;100.00;97952.38;5090217;28;20203;-79
2023/12/01 10:42:07;;;;;;;43.40;25.77;;;;;;;1.69;100.00;97950.72;5094828;28;20219;-81
2023/12/01 10:44:35;;;;;;;39.27;24.10;;;;;;;1.57;100.00;97941.81;5075776;28;20290;-78
2023/12/01 10:47:09;;;;;;;38.40;25.80;;;;;;;1.61;100.00;97953.56;5095023;28;20192;-78
2023/12/01 10:49:40;;;;;;;43.10;26.60;;;;;;;1.66;100.00;97956.41;5099349;28;20271;-79
2023/12/01 10:52:12;;;;;;;41.40;26.63;;;;;;;1.56;100.00;97958.66;5097256;28;20293;-79
2023/12/01 10:54:43;;;;;;;43.27;26.67;;;;;;;1.27;100.00;97949.28;5098334;28;20203;-78
2023/12/01 10:57:33;;;;;;;41.90;26.00;;;;;;;1.30;100.00;97956.00;5090778;28;20191;-77
2023/12/01 11:00:09;;;;;;;44.13;25.43;;;;;;;1.39;100.00;97951.34;5099153;28;20278;-79
2023/12/01 11:02:38;;;;;;;42.50;25.90;;;;;;;1.40;100.00;97950.31;5090976;28;20212;-79
2023/12/01 11:05:07;;;;;;;45.87;27.27;;;;;;;1.47;100.00;97953.78;5099352;28;20214;-78
2023/12/01 11:08:09;;;;;;;45.00;26.23;;;;;;;1.55;100.00;97953.56;5101519;28;20211;-78
2023/12/01 11:10:52;;;;;;;42.90;25.77;;;;;;;1.64;100.00;97954.97;5097720;28;20281;-78
2023/12/01 11:13:36;;;;;;;45.80;27.37;;;;;;;1.61;100.00;97939.56;5096141;28;20231;-78
2023/12/01 11:16:04;;;;;;;42.23;25.83;;;;;;;1.49;100.00;97935.91;5079100;28;20200;-77
2023/12/01 11:18:34;;;;;;;42.37;26.87;;;;;;;1.49;100.00;97933.28;5103541;28;20200;-78
2023/12/01 11:21:07;;;;;;;44.50;25.97;;;;;;;1.46;100.00;97937.13;5108216;28;20668;-78
2023/12/01 11:23:39;;;;;;;45.17;25.77;;;;;;;1.38;100.00;97933.88;5096162;28;20200;-79
2023/12/01 11:26:10;;;;;;;41.70;25.50;;;;;;;1.34;100.00;97920.28;5101568;28;20236;-78